Time;durP1;ratioP1;P1;durP2;ratioP2;P2;SDS_P1;SDS_P2;PMS_P1;PMS_P2;Temp;Humidity;BMP_temperature;BMP_pressure;BME280_temperature;BME280_humidity;BME280_pressure;Samples;Min_cycle;Max_cycle;Signal;HPM_P1;HPM_P2
2022/10/11 00:01:40;;;;;;;;;;;;;;;6.58;100.00;102396.94;5021346;28;20299;-39
2022/10/11 00:04:05;;;;;;;;;;;;;;;6.58;100.00;102397.78;5020058;28;20291;-41
2022/10/11 00:06:30;;;;;;;;;;;;;;;6.58;100.00;102404.91;5020320;28;19982;-39
2022/10/11 00:08:55;;;;;;;;;;;;;;;6.59;100.00;102403.97;5016211;28;19964;-39
2022/10/11 00:11:20;;;;;;;;;;;;;;;6.60;100.00;102405.66;5017622;28;20196;-39
2022/10/11 00:13:46;;;;;;;;;;;;;;;6.59;100.00;102407.47;5007910;28;20317;-39
2022/10/11 00:16:11;;;;;;;;;;;;;;;6.60;100.00;102401.22;5001282;28;19913;-39
2022/10/11 00:18:37;;;;;;;;;;;;;;;6.62;100.00;102404.63;5003151;28;19967;-39
2022/10/11 00:21:04;;;;;;;;;;;;;;;6.62;100.00;102409.06;5004741;28;20377;-39
2022/10/11 00:23:29;;;;;;;;;;;;;;;6.61;100.00;102391.44;5004820;28;20344;-39
2022/10/11 00:25:58;;;;;;;;;;;;;;;6.60;100.00;102398.56;5009364;28;19928;-39
2022/10/11 00:28:23;;;;;;;;;;;;;;;6.60;100.00;102398.56;5014007;28;19924;-40
2022/10/11 00:30:48;;;;;;;;;;;;;;;6.59;100.00;102399.50;5003754;28;19921;-40
2022/10/11 00:33:14;;;;;;;;;;;;;;;6.58;100.00;102408.41;5002499;28;19916;-40
2022/10/11 00:35:40;;;;;;;;;;;;;;;6.59;100.00;102402.16;5013421;28;20072;-39
2022/10/11 00:38:05;;;;;;;;;;;;;;;6.58;100.00;102408.41;5005519;28;20000;-38
2022/10/11 00:40:30;;;;;;;;;;;;;;;6.58;100.00;102413.72;5010292;28;20012;-39
2022/10/11 00:42:56;;;;;;;;;;;;;;;6.57;100.00;102417.34;5005600;28;19917;-39
2022/10/11 00:45:30;;;;;;;;;;;;;;;6.54;100.00;102414.88;5010694;28;19917;-39
2022/10/11 00:47:58;;;;;;;;;;;;;;;6.48;100.00;102413.47;4999465;28;19964;-40
2022/10/11 00:50:23;;;;;;;;;;;;;;;6.44;100.00;102421.69;5003718;28;19924;-39
2022/10/11 00:52:52;;;;;;;;;;;;;;;6.40;100.00;102428.13;5000792;28;20000;-39
2022/10/11 00:55:19;;;;;;;;;;;;;;;6.39;100.00;102421.97;5017058;28;19939;-40
2022/10/11 00:57:46;;;;;;;;;;;;;;;6.38;100.00;102425.56;5002744;28;19921;-39
2022/10/11 01:00:12;;;;;;;;;;;;;;;6.38;100.00;102433.53;5014958;28;19921;-39
2022/10/11 01:02:38;;;;;;;;;;;;;;;6.35;100.00;102426.63;5017931;28;20354;-40
2022/10/11 01:05:04;;;;;;;;;;;;;;;6.35;100.00;102434.59;5020135;28;20055;-39
2022/10/11 01:07:30;;;;;;;;;;;;;;;6.32;100.00;102437.44;5018556;28;20355;-39
2022/10/11 01:09:56;;;;;;;;;;;;;;;6.28;100.00;102427.97;5017088;28;19921;-39
2022/10/11 01:12:23;;;;;;;;;;;;;;;6.25;100.00;102437.91;5018993;28;19924;-38
2022/10/11 01:14:48;;;;;;;;;;;;;;;6.21;100.00;102428.41;5018810;28;20016;-38
2022/10/11 01:17:23;;;;;;;;;;;;;;;6.18;100.00;102429.47;5019281;28;19999;-39
2022/10/11 01:19:48;;;;;;;;;;;;;;;6.17;100.00;102438.34;5013259;28;20420;-39
2022/10/11 01:22:25;;;;;;;;;;;;;;;6.15;100.00;102437.59;5018253;28;19924;-39
2022/10/11 01:25:04;;;;;;;;;;;;;;;6.12;100.00;102437.78;5017280;28;19917;-38
2022/10/11 01:27:32;;;;;;;;;;;;;;;6.10;100.00;102431.72;5012963;28;20829;-39
2022/10/11 01:30:16;;;;;;;;;;;;;;;6.07;100.00;102437.22;5018031;28;19964;-39
2022/10/11 01:32:59;;;;;;;;;;;;;;;6.06;100.00;102438.16;5017308;28;20005;-38
2022/10/11 01:35:28;;;;;;;;;;;;;;;6.03;100.00;102431.25;5006036;28;20020;-38
2022/10/11 01:38:12;;;;;;;;;;;;;;;6.02;100.00;102436.63;5017793;28;20141;-39
2022/10/11 01:40:40;;;;;;;;;;;;;;;5.98;100.00;102439.47;5008756;28;20446;-40
2022/10/11 01:43:07;;;;;;;;;;;;;;;5.91;100.00;102443.41;5017717;28;19991;-39
2022/10/11 01:45:33;;;;;;;;;;;;;;;5.79;100.00;102441.50;5017250;28;20264;-39
2022/10/11 01:48:06;;;;;;;;;;;;;;;5.72;100.00;102445.41;5018033;28;19924;-38
2022/10/11 01:50:33;;;;;;;;;;;;;;;5.69;100.00;102435.88;5017470;28;19933;-40
2022/10/11 01:53:01;;;;;;;;;;;;;;;5.69;100.00;102435.88;5019045;28;19940;-38
2022/10/11 01:55:36;;;;;;;;;;;;;;;5.68;100.00;102441.25;5019191;28;19918;-39
2022/10/11 01:58:08;;;;;;;;;;;;;;;5.61;100.00;102449.56;5009358;28;20356;-39
2022/10/11 02:00:47;;;;;;;;;;;;;;;5.54;100.00;102444.72;5016380;28;19921;-39
2022/10/11 02:03:18;;;;;;;;;;;;;;;5.49;100.00;102439.66;5015436;28;20144;-37
2022/10/11 02:06:02;;;;;;;;;;;;;;;5.42;100.00;102448.91;5018488;28;19924;-39
2022/10/11 02:08:37;;;;;;;;;;;;;;;5.40;100.00;102458.75;5017685;28;20020;-39
2022/10/11 02:11:09;;;;;;;;;;;;;;;5.34;100.00;102457.28;5008171;28;19924;-39
2022/10/11 02:13:37;;;;;;;;;;;;;;;5.30;100.00;102453.13;5017096;28;20007;-39
2022/10/11 02:16:05;;;;;;;;;;;;;;;5.31;100.00;102456.63;5018658;28;19913;-38
2022/10/11 02:18:35;;;;;;;;;;;;;;;5.35;100.00;102455.53;5016769;28;20018;-39
2022/10/11 02:21:01;;;;;;;;;;;;;;;5.38;100.00;102464.16;5019304;28;19920;-41
2022/10/11 02:23:35;;;;;;;;;;;;;;;5.41;100.00;102461.31;5016204;28;20453;-40
2022/10/11 02:26:02;;;;;;;;;;;;;;;5.42;100.00;102455.06;5018684;28;19921;-40
2022/10/11 02:28:29;;;;;;;;;;;;;;;5.45;100.00;102456.69;5017552;28;20356;-39
2022/10/11 02:30:55;;;;;;;;;;;;;;;5.42;100.00;102454.22;5017629;28;20639;-40
2022/10/11 02:33:25;;;;;;;;;;;;;;;5.45;100.00;102461.13;5016970;28;19921;-39
2022/10/11 02:35:55;;;;;;;;;;;;;;;5.45;100.00;102459.34;5017754;28;19949;-39
2022/10/11 02:38:23;;;;;;;;;;;;;;;5.45;100.00;102462.00;5018272;28;20242;-40
2022/10/11 02:41:05;;;;;;;;;;;;;;;5.47;100.00;102465.41;5015707;28;19956;-40
2022/10/11 02:44:06;;;;;;;;;;;;;;;5.47;100.00;102468.06;5017154;28;19932;-38
2022/10/11 02:46:32;;;;;;;;;;;;;;;5.47;100.00;102460.09;5016959;28;19917;-39
2022/10/11 02:48:58;;;;;;;;;;;;;;;5.47;100.00;102460.09;5016380;28;19917;-40
2022/10/11 02:51:24;;;;;;;;;;;;;;;5.46;100.00;102460.19;5018210;28;19924;-39
2022/10/11 02:53:49;;;;;;;;;;;;;;;5.46;100.00;102462.84;5016839;28;19917;-39
2022/10/11 02:56:14;;;;;;;;;;;;;;;5.46;100.00;102461.03;5018165;28;19917;-39
2022/10/11 02:58:40;;;;;;;;;;;;;;;5.44;100.00;102468.22;5015625;28;19917;-39
2022/10/11 03:01:05;;;;;;;;;;;;;;;5.41;100.00;102463.09;5017022;28;19913;-39
2022/10/11 03:03:30;;;;;;;;;;;;;;;5.39;100.00;102465.00;5020449;28;20431;-39
2022/10/11 03:05:59;;;;;;;;;;;;;;;5.37;100.00;102467.72;5017722;28;19913;-39
2022/10/11 03:08:24;;;;;;;;;;;;;;;5.35;100.00;102466.13;5017839;28;20262;-39
2022/10/11 03:10:49;;;;;;;;;;;;;;;5.33;100.00;102471.50;5017982;28;19982;-40
2022/10/11 03:13:14;;;;;;;;;;;;;;;5.31;100.00;102473.38;5014927;28;19917;-39
2022/10/11 03:15:39;;;;;;;;;;;;;;;5.31;100.00;102469.88;5017576;28;20008;-39
2022/10/11 03:18:05;;;;;;;;;;;;;;;5.28;100.00;102470.03;5017362;28;19997;-39
2022/10/11 03:20:30;;;;;;;;;;;;;;;5.27;100.00;102478.94;5018438;28;20514;-39
2022/10/11 03:22:55;;;;;;;;;;;;;;;5.23;100.00;102476.44;5017750;28;19929;-40
2022/10/11 03:25:20;;;;;;;;;;;;;;;5.22;100.00;102472.09;5018312;28;19913;-39
2022/10/11 03:27:45;;;;;;;;;;;;;;;5.23;100.00;102480.91;5016895;28;19919;-39
2022/10/11 03:30:12;;;;;;;;;;;;;;;5.20;100.00;102479.25;5016270;28;20346;-40
2022/10/11 03:32:37;;;;;;;;;;;;;;;5.20;100.00;102473.97;5015367;28;19917;-39
2022/10/11 03:35:02;;;;;;;;;;;;;;;5.20;100.00;102479.25;5018315;28;20435;-40
2022/10/11 03:37:27;;;;;;;;;;;;;;;5.17;100.00;102482.09;5017492;28;19921;-39
2022/10/11 03:39:52;;;;;;;;;;;;;;;5.18;100.00;102478.50;5017548;28;20296;-38
2022/10/11 03:42:18;;;;;;;;;;;;;;;5.16;100.00;102477.75;5017343;28;19960;-39
2022/10/11 03:44:43;;;;;;;;;;;;;;;5.16;100.00;102482.16;5017188;28;19913;-39
2022/10/11 03:47:08;;;;;;;;;;;;;;;5.16;100.00;102476.88;5016821;28;20395;-39
2022/10/11 03:49:34;;;;;;;;;;;;;;;5.16;100.00;102487.47;5019158;28;19928;-39
2022/10/11 03:51:59;;;;;;;;;;;;;;;5.14;100.00;102482.28;5016339;28;19921;-38
2022/10/11 03:54:24;;;;;;;;;;;;;;;5.14;100.00;102481.41;5018080;28;20107;-37
2022/10/11 03:56:49;;;;;;;;;;;;;;;5.13;100.00;102488.50;5020439;28;20299;-40
2022/10/11 03:59:15;;;;;;;;;;;;;;;5.09;100.00;102486.97;5020368;28;19913;-38
2022/10/11 04:01:40;;;;;;;;;;;;;;;5.09;100.00;102489.63;5021559;28;19914;-38
2022/10/11 04:04:05;;;;;;;;;;;;;;;5.08;100.00;102495.00;5020087;28;19920;-38
2022/10/11 04:06:31;;;;;;;;;;;;;;;5.02;100.00;102494.41;5020493;28;19921;-39
2022/10/11 04:08:56;;;;;;;;;;;;;;;4.98;100.00;102494.66;5020222;28;20384;-39
2022/10/11 04:11:21;;;;;;;;;;;;;;;4.95;100.00;102495.66;5020886;28;19940;-39
2022/10/11 04:13:46;;;;;;;;;;;;;;;4.93;100.00;102494.03;5019865;28;20400;-38
2022/10/11 04:16:12;;;;;;;;;;;;;;;4.92;100.00;102493.19;5020522;28;19967;-39
2022/10/11 04:18:37;;;;;;;;;;;;;;;4.95;100.00;102497.44;5020144;28;19917;-38
2022/10/11 04:21:02;;;;;;;;;;;;;;;4.94;100.00;102499.25;5015887;28;19971;-39
2022/10/11 04:23:29;;;;;;;;;;;;;;;4.85;100.00;102503.25;5032175;28;19913;-39
2022/10/11 04:25:54;;;;;;;;;;;;;;;4.77;100.00;102512.53;5015171;28;20412;-39
2022/10/11 04:28:19;;;;;;;;;;;;;;;4.72;100.00;102514.56;5018059;28;19982;-40
2022/10/11 04:30:44;;;;;;;;;;;;;;;4.72;100.00;102518.09;5018048;28;19932;-38
2022/10/11 04:33:10;;;;;;;;;;;;;;;4.73;100.00;102524.22;5018994;28;19928;-38
2022/10/11 04:35:36;;;;;;;;;;;;;;;4.74;100.00;102524.16;5019759;28;19923;-38
2022/10/11 04:38:01;;;;;;;;;;;;;;;4.76;100.00;102522.25;5017869;28;19922;-41
2022/10/11 04:40:26;;;;;;;;;;;;;;;4.76;100.00;102518.78;5017780;28;20364;-39
2022/10/11 04:42:52;;;;;;;;;;;;;;;4.73;100.00;102525.06;5017209;28;20042;-39
2022/10/11 04:45:17;;;;;;;;;;;;;;;4.75;100.00;102522.34;5018175;28;19921;-38
2022/10/11 04:47:43;;;;;;;;;;;;;;;4.76;100.00;102526.72;5015149;28;19917;-38
2022/10/11 04:50:08;;;;;;;;;;;;;;;4.75;100.00;102539.09;5016512;28;19925;-38
2022/10/11 04:52:33;;;;;;;;;;;;;;;4.75;100.00;102530.28;5017961;28;20292;-38
2022/10/11 04:54:58;;;;;;;;;;;;;;;4.75;100.00;102528.53;5018445;28;20479;-38
2022/10/11 04:57:23;;;;;;;;;;;;;;;4.75;100.00;102530.28;5017773;28;20007;-39
2022/10/11 04:59:49;;;;;;;;;;;;;;;4.74;100.00;102533.88;5016313;28;20267;-38
2022/10/11 05:02:14;;;;;;;;;;;;;;;4.74;100.00;102534.75;5017266;28;19932;-39
2022/10/11 05:04:39;;;;;;;;;;;;;;;4.71;100.00;102531.41;5017890;28;20207;-39
2022/10/11 05:07:05;;;;;;;;;;;;;;;4.70;100.00;102530.56;5017594;28;19925;-39
2022/10/11 05:09:30;;;;;;;;;;;;;;;4.70;100.00;102529.69;5009399;28;19925;-39
2022/10/11 05:11:55;;;;;;;;;;;;;;;4.69;100.00;102538.56;5015220;28;19917;-39
2022/10/11 05:14:21;;;;;;;;;;;;;;;4.69;100.00;102539.41;5018488;28;19924;-39
2022/10/11 05:16:46;;;;;;;;;;;;;;;4.67;100.00;102541.28;5021657;28;20035;-38
2022/10/11 05:19:11;;;;;;;;;;;;;;;4.63;100.00;102540.59;5011314;28;20315;-39
2022/10/11 05:21:36;;;;;;;;;;;;;;;4.61;100.00;102547.75;5019599;28;19928;-39
2022/10/11 05:24:01;;;;;;;;;;;;;;;4.58;100.00;102541.75;5016948;28;20020;-39
2022/10/11 05:26:27;;;;;;;;;;;;;;;4.55;100.00;102541.91;5017031;28;20037;-39
2022/10/11 05:28:52;;;;;;;;;;;;;;;4.53;100.00;102541.16;5017181;28;19924;-39
2022/10/11 05:31:17;;;;;;;;;;;;;;;4.53;100.00;102546.44;5019105;28;20193;-38
2022/10/11 05:33:43;;;;;;;;;;;;;;;4.50;100.00;102547.47;5014624;28;19925;-38
2022/10/11 05:36:09;;;;;;;;;;;;;;;4.50;100.00;102544.81;5010716;28;20683;-38
2022/10/11 05:38:34;;;;;;;;;;;;;;;4.47;100.00;102540.53;5011125;28;21485;-38
2022/10/11 05:41:01;;;;;;;;;;;;;;;4.46;100.00;102546.78;5011756;28;19925;-39
2022/10/11 05:43:27;;;;;;;;;;;;;;;4.47;100.00;102552.91;5005494;28;19924;-39
2022/10/11 05:45:52;;;;;;;;;;;;;;;4.46;100.00;102559.13;5013758;28;20225;-39
2022/10/11 05:48:17;;;;;;;;;;;;;;;4.45;100.00;102550.34;5009564;28;20044;-39
2022/10/11 05:50:42;;;;;;;;;;;;;;;4.45;100.00;102555.63;5010942;28;20466;-39
2022/10/11 05:53:08;;;;;;;;;;;;;;;4.45;100.00;102550.34;5010641;28;19921;-39
2022/10/11 05:55:40;;;;;;;;;;;;;;;4.43;100.00;102554.88;5014908;28;19928;-38
2022/10/11 05:58:06;;;;;;;;;;;;;;;4.44;100.00;102563.66;5002875;28;20055;-39
2022/10/11 06:00:31;;;;;;;;;;;;;;;4.44;100.00;102566.28;5010489;28;19993;-39
2022/10/11 06:02:56;;;;;;;;;;;;;;;4.44;100.00;102572.44;5006430;28;19999;-39
2022/10/11 06:05:21;;;;;;;;;;;;;;;4.46;100.00;102572.34;5009059;28;20852;-39
2022/10/11 06:07:47;;;;;;;;;;;;;;;4.47;100.00;102576.72;5005141;28;19928;-39
2022/10/11 06:10:12;;;;;;;;;;;;;;;4.46;100.00;102583.81;5013118;28;19921;-39
2022/10/11 06:12:37;;;;;;;;;;;;;;;4.48;100.00;102583.72;5000067;28;19922;-39
2022/10/11 06:15:06;;;;;;;;;;;;;;;4.49;100.00;102580.13;5012859;28;20319;-39
2022/10/11 06:17:31;;;;;;;;;;;;;;;4.51;100.00;102585.34;5011362;28;19921;-39
2022/10/11 06:19:57;;;;;;;;;;;;;;;4.53;100.00;102586.13;5011862;28;19926;-38
2022/10/11 06:22:22;;;;;;;;;;;;;;;4.54;100.00;102595.78;4999128;28;19924;-39
2022/10/11 06:24:47;;;;;;;;;;;;;;;4.48;100.00;102587.22;5009199;28;19917;-38
2022/10/11 06:27:13;;;;;;;;;;;;;;;4.39;100.00;102592.97;5014085;28;19928;-38
2022/10/11 06:29:38;;;;;;;;;;;;;;;4.30;100.00;102589.00;5012788;28;19961;-38
2022/10/11 06:32:04;;;;;;;;;;;;;;;4.29;100.00;102595.25;4998546;28;20072;-38
2022/10/11 06:34:29;;;;;;;;;;;;;;;4.31;100.00;102608.38;5012343;28;19916;-39
2022/10/11 06:36:54;;;;;;;;;;;;;;;4.33;100.00;102603.00;5012940;28;20133;-39
2022/10/11 06:39:19;;;;;;;;;;;;;;;4.37;100.00;102609.88;5014403;28;19986;-39
2022/10/11 06:41:45;;;;;;;;;;;;;;;4.40;100.00;102602.63;4999318;28;19921;-39
2022/10/11 06:44:11;;;;;;;;;;;;;;;4.49;100.00;102601.31;5004467;28;20427;-39
2022/10/11 06:46:36;;;;;;;;;;;;;;;4.59;100.00;102607.84;4997374;28;20378;-38
2022/10/11 06:49:01;;;;;;;;;;;;;;;4.70;100.00;102612.59;5002527;28;20396;-38
2022/10/11 06:51:28;;;;;;;;;;;;;;;4.83;100.00;102620.75;5015511;28;19941;-38
2022/10/11 06:53:55;;;;;;;;;;;;;;;4.92;100.00;102609.69;5006777;28;19929;-39
2022/10/11 06:56:20;;;;;;;;;;;;;;;5.03;100.00;102607.31;5007228;28;19921;-38
2022/10/11 06:58:46;;;;;;;;;;;;;;;5.14;100.00;102614.69;5004721;28;20334;-39
2022/10/11 07:01:12;;;;;;;;;;;;;;;5.25;100.00;102616.75;5014179;28;19917;-39
2022/10/11 07:03:38;;;;;;;;;;;;;;;5.36;100.00;102626.78;5005326;28;19924;-39
2022/10/11 07:06:05;;;;;;;;;;;;;;;5.45;100.00;102623.63;5012306;28;19917;-39
2022/10/11 07:08:30;;;;;;;;;;;;;;;5.54;100.00;102623.13;5013977;28;19943;-40
2022/10/11 07:10:59;;;;;;;;;;;;;;;5.65;100.00;102619.91;5010443;28;20004;-39
2022/10/11 07:13:25;;;;;;;;;;;;;;;5.78;100.00;102623.53;5013389;28;19936;-39
2022/10/11 07:15:50;;;;;;;;;;;;;;;5.90;100.00;102624.66;5012672;28;20379;-40
2022/10/11 07:18:15;;;;;;;;;;;;;;;6.02;100.00;102628.44;5013134;28;20288;-39
2022/10/11 07:20:40;;;;;;;;;;;;;;;6.13;100.00;102635.81;5007503;28;19940;-39
2022/10/11 07:23:05;;;;;;;;;;;;;;;6.24;100.00;102629.88;5011884;28;19921;-38
2022/10/11 07:25:30;;;;;;;;;;;;;;;6.32;100.00;102636.44;5009051;28;19957;-38
2022/10/11 07:27:56;;;;;;;;;;;;;;;6.43;100.00;102633.19;5000088;28;20106;-38
2022/10/11 07:30:21;;;;;;;;;;;;;;;6.50;100.00;102641.59;5012177;28;19968;-38
2022/10/11 07:32:46;;;;;;;;;;;;;;;6.58;100.00;102643.81;5009935;28;20030;-39
2022/10/11 07:35:11;;;;;;;;;;;;;;;6.65;100.00;102640.72;5008105;28;20498;-39
2022/10/11 07:37:37;;;;;;;;;;;;;;;6.76;100.00;102644.53;5013128;28;19920;-39
2022/10/11 07:40:02;;;;;;;;;;;;;;;6.82;100.00;102647.69;5019418;28;20178;-39
2022/10/11 07:42:27;;;;;;;;;;;;;;;6.89;100.00;102653.47;5012752;28;19913;-39
2022/10/11 07:44:52;;;;;;;;;;;;;;;6.97;100.00;102653.00;5016479;28;19925;-39
2022/10/11 07:47:18;;;;;;;;;;;;;;;7.04;100.00;102655.22;5016937;28;19932;-39
2022/10/11 07:49:43;;;;;;;;;;;;;;;7.13;100.00;102653.78;5017342;28;19926;-38
2022/10/11 07:52:08;;;;;;;;;;;;;;;7.22;100.00;102655.03;5010081;28;20670;-39
2022/10/11 07:54:33;;;;;;;;;;;;;;;7.33;100.00;102660.53;5018427;28;20051;-38
2022/10/11 07:56:58;;;;;;;;;;;;;;;7.44;100.00;102657.19;5025130;28;20391;-38
2022/10/11 07:59:24;;;;;;;;;;;;;;;7.58;100.00;102664.31;5008433;28;20251;-38
2022/10/11 08:01:49;;;;;;;;;;;;;;;7.67;100.00;102663.72;5009703;28;20427;-39
2022/10/11 08:04:15;;;;;;;;;;;;;;;7.76;100.00;102657.81;5014296;28;20232;-39
2022/10/11 08:06:41;;;;;;;;;;;;;;;7.88;100.00;102664.16;5013104;28;20395;-38
2022/10/11 08:09:06;;;;;;;;;;;;;;;7.98;100.00;102659.97;5008323;28;19940;-39
2022/10/11 08:11:32;;;;;;;;;;;;;;;8.08;100.00;102665.53;5010166;28;19922;-39
2022/10/11 08:13:58;;;;;;;;;;;;;;;8.15;100.00;102674.81;4999478;28;19920;-38
2022/10/11 08:16:24;;;;;;;;;;;;;;;8.22;100.00;102669.97;5008828;28;19918;-39
2022/10/11 08:18:49;;;;;;;;;;;;;;;8.32;100.00;102672.88;5003895;28;19923;-39
2022/10/11 08:21:16;;;;;;;;;;;;;;;8.40;100.00;102675.88;5011283;28;19920;-39
2022/10/11 08:23:41;;;;;;;;;;;;;;;8.51;100.00;102678.72;5005540;28;20094;-37
2022/10/11 08:26:06;;;;;;;;;;;;;;;8.64;100.00;102675.22;5008138;28;20161;-39
2022/10/11 08:28:32;;;;;;;;;;;;;;;8.75;100.00;102680.69;5003550;28;19968;-39
2022/10/11 08:30:57;;;;;;;;;;;;;;;8.89;100.00;102675.28;5014539;28;19939;-39
2022/10/11 08:33:23;;;;;;;;;;;;;;;9.04;100.00;102680.50;5009483;28;20052;-39
2022/10/11 08:35:49;;;;;;;;;;;;;;;9.19;100.00;102686.59;5013213;28;19921;-39
2022/10/11 08:38:14;;;;;;;;;;;;;;;9.34;100.00;102690.84;5018386;28;19917;-39
2022/10/11 08:40:50;;;;;;;;;;;;;;;9.51;100.00;102684.31;5017571;28;19921;-39
2022/10/11 08:43:25;;;;;;;;;;;;;;;9.66;100.00;102690.41;5019223;28;20346;-39
2022/10/11 08:45:53;;;;;;;;;;;;;;;9.76;100.00;102696.78;5019435;28;19913;-39
2022/10/11 08:48:37;;;;;;;;;;;;;;;9.88;100.00;102695.88;5019297;28;20011;-39
2022/10/11 08:51:08;;;;;;;;;;;;;;;10.00;100.00;102690.63;5015147;28;19917;-40
2022/10/11 08:53:52;;;;;;;;;;;;;;;10.10;100.00;102694.34;5019735;28;19975;-39
2022/10/11 08:56:19;;;;;;;;;;;;;;;10.23;100.00;102694.25;5014572;28;20000;-39
2022/10/11 08:58:48;;;;;;;;;;;;;;;10.33;100.00;102697.16;5011924;28;19995;-38
2022/10/11 09:01:17;;;;;;;;;;;;;;;10.40;100.00;102699.25;5016594;28;20546;-40
2022/10/11 09:03:44;;;;;;;;;;;;;;;10.50;100.00;102707.41;5001409;28;19991;-40
2022/10/11 09:06:14;;;;;;;;;;;;;;;10.59;100.00;102703.19;4999547;28;19917;-40
2022/10/11 09:08:58;;;;;;;;;;;;;;;10.68;100.00;102702.53;5008738;28;19968;-39
2022/10/11 09:11:23;;;;;;;;;;;;;;;10.77;100.00;102699.13;5008019;28;19924;-39
2022/10/11 09:13:51;;;;;;;;;;;;;;;10.89;100.00;102702.69;5001248;28;19914;-39
2022/10/11 09:16:16;;;;;;;;;;;;;;;11.01;100.00;102706.25;5007760;28;19913;-41
2022/10/11 09:19:13;;;;;;;;;;;;;;;11.10;100.00;102707.34;4999277;28;20432;-40
2022/10/11 09:21:43;;;;;;;;;;;;;;;11.15;100.00;102706.06;4999994;28;20434;-40
2022/10/11 09:24:30;;;;;;;;;;;;;;;11.19;100.00;102709.34;4998931;28;19918;-39
2022/10/11 09:26:58;;;;;;;;;;;;;;;11.25;100.00;102703.47;4998591;28;20399;-39
2022/10/11 09:29:26;;;;;;;;;;;;;;;11.37;100.00;102712.38;5013315;28;19913;-38
2022/10/11 09:31:53;;;;;;;;;;;;;;;11.50;100.00;102714.94;5006408;28;19918;-41
2022/10/11 09:34:20;;;;;;;;;;;;;;;11.65;100.00;102716.41;5008589;28;20646;-39
2022/10/11 09:36:53;;;;;;;;;;;;;;;11.82;100.00;102716.91;5018169;28;19921;-38
2022/10/11 09:39:32;;;;;;;;;;;;;;;11.94;100.00;102703.38;5011293;28;20215;-40
2022/10/11 09:41:59;;;;;;;;;;;;;;;12.09;100.00;102700.44;4997988;28;20391;-40
2022/10/11 09:44:26;;;;;;;;;;;;;;;12.23;100.00;102716.22;5010900;28;20397;-40
2022/10/11 09:46:52;;;;;;;;;;;;;;;12.36;100.00;102709.88;5010522;28;19929;-41
2022/10/11 09:49:18;;;;;;;;;;;;;;;12.46;100.00;102714.34;4999768;28;20395;-41
2022/10/11 09:51:54;;;;;;;;;;;;;;;12.57;100.00;102710.75;4999038;28;20189;-40
2022/10/11 09:54:26;;;;;;;;;;;;;;;12.69;100.00;102711.56;5009714;28;20027;-41
2022/10/11 09:56:51;;;;;;;;;;;;;;;12.84;100.00;102714.78;5016491;28;19943;-39
2022/10/11 09:59:23;;;;;;;;;;;;;;;12.99;100.00;102713.47;5007805;28;20376;-39
2022/10/11 10:01:48;;;;;;;;;;;;;;;13.14;100.00;102708.63;4997896;28;19925;-41
2022/10/11 10:04:15;;;;;;;;;;;;;;;13.27;100.00;102718.28;4998265;28;19913;-41
2022/10/11 10:06:41;;;;;;;;;;;;;;;13.39;100.00;102715.44;5008839;28;19937;-41
2022/10/11 10:09:18;;;;;;;;;;;;;;;13.57;100.00;102715.63;5010631;28;19940;-40
2022/10/11 10:11:44;;;;;;;;;;;;;;;13.72;100.00;102712.59;5004952;28;19989;-41
2022/10/11 10:14:18;;;;;;;;;;;;;;;13.84;100.00;102711.50;5003525;28;20146;-41
2022/10/11 10:16:43;;;;;;;;;;;;;;;13.98;100.00;102711.13;5016756;28;19921;-40
2022/10/11 10:19:24;;;;;;;;;;;;;;;14.17;100.00;102710.31;5003369;28;19924;-40
2022/10/11 10:21:50;;;;;;;;;;;;;;;14.38;100.00;102706.66;5007139;28;19923;-40
2022/10/11 10:24:31;;;;;;;;;;;;;;;14.51;94.59;102711.75;4998884;28;19913;-40
2022/10/11 10:27:17;;;;;;;;;;;;;;;14.55;91.37;102703.25;4997494;28;19913;-40
2022/10/11 10:29:58;;;;;;;;;;;;;;;14.66;94.82;102705.00;4998150;28;19975;-42
2022/10/11 10:32:26;;;;;;;;;;;;;;;14.77;87.87;102706.69;4997675;28;19914;-41
2022/10/11 10:34:55;;;;;;;;;;;;;;;14.85;86.98;102706.81;5014266;28;19963;-42
2022/10/11 10:37:25;;;;;;;;;;;;;;;14.94;93.08;102712.34;5017092;28;20179;-40
2022/10/11 10:40:17;;;;;;;;;;;;;;;15.00;85.54;102701.81;5012648;28;20466;-40
2022/10/11 10:42:42;;;;;;;;;;;;;;;15.11;85.67;102703.50;5014294;28;20386;-39
2022/10/11 10:45:13;;;;;;;;;;;;;;;15.21;85.05;102703.50;4998733;28;20154;-40
2022/10/11 10:47:57;;;;;;;;;;;;;;;15.30;88.69;102702.59;5008495;28;19956;-40
2022/10/11 10:50:24;;;;;;;;;;;;;;;15.45;89.81;102706.50;5009198;28;19922;-41
2022/10/11 10:52:55;;;;;;;;;;;;;;;15.57;78.12;102704.47;4998531;28;19917;-40
2022/10/11 10:55:39;;;;;;;;;;;;;;;15.59;75.81;102704.34;5003996;28;19945;-42
2022/10/11 10:58:22;;;;;;;;;;;;;;;15.64;75.92;102696.66;5001476;28;19913;-41
2022/10/11 11:00:49;;;;;;;;;;;;;;;15.72;85.29;102698.63;5002937;28;19968;-41
2022/10/11 11:03:20;;;;;;;;;;;;;;;15.82;70.95;102702.97;5013250;28;19916;-41
2022/10/11 11:05:59;;;;;;;;;;;;;;;15.92;79.04;102696.66;5011263;28;19913;-40
2022/10/11 11:09:03;;;;;;;;;;;;;;;16.04;82.51;102693.63;5013018;28;20181;-42
2022/10/11 11:11:28;;;;;;;;;;;;;;;16.19;77.77;102699.34;4998363;28;20138;-42
2022/10/11 11:13:59;;;;;;;;;;;;;;;16.22;77.08;102698.19;4996274;28;19925;-41
2022/10/11 11:16:32;;;;;;;;;;;;;;;16.28;78.58;102692.19;5004566;28;19922;-43
2022/10/11 11:18:57;;;;;;;;;;;;;;;16.31;78.80;102691.88;5018069;28;19992;-40
2022/10/11 11:21:38;;;;;;;;;;;;;;;16.32;71.11;102690.03;5014933;28;19943;-41
2022/10/11 11:24:06;;;;;;;;;;;;;;;16.37;70.81;102685.00;5019408;28;20410;-40
2022/10/11 11:26:46;;;;;;;;;;;;;;;16.48;65.14;102675.84;5019672;28;20193;-42
2022/10/11 11:29:23;;;;;;;;;;;;;;;16.49;73.17;102675.69;5019620;28;19920;-40
2022/10/11 11:32:01;;;;;;;;;;;;;;;16.62;76.42;102675.28;5018087;28;20329;-40
2022/10/11 11:34:36;;;;;;;;;;;;;;;16.78;78.15;102674.56;5017319;28;19917;-42
2022/10/11 11:37:01;;;;;;;;;;;;;;;16.88;73.37;102669.09;5022430;28;19928;-40
2022/10/11 11:39:31;;;;;;;;;;;;;;;16.98;77.69;102666.31;5015541;28;20229;-39
2022/10/11 11:42:06;;;;;;;;;;;;;;;17.04;69.15;102669.22;5016554;28;19917;-42
2022/10/11 11:44:35;;;;;;;;;;;;;;;17.11;63.37;102669.44;5006680;28;20404;-41
2022/10/11 11:47:04;;;;;;;;;;;;;;;17.13;61.36;102670.13;5013097;28;19917;-42
2022/10/11 11:49:36;;;;;;;;;;;;;;;17.06;61.29;102661.81;5017850;28;19982;-42
2022/10/11 11:52:04;;;;;;;;;;;;;;;17.03;67.25;102659.41;5014674;28;19944;-42
2022/10/11 11:54:53;;;;;;;;;;;;;;;17.25;63.98;102662.59;5020024;28;19917;-42
2022/10/11 11:57:37;;;;;;;;;;;;;;;17.51;71.06;102659.81;5001634;28;20009;-41
2022/10/11 12:00:05;;;;;;;;;;;;;;;17.69;72.58;102648.91;5007261;28;20295;-42
2022/10/11 12:02:46;;;;;;;;;;;;;;;17.87;72.60;102654.22;5000685;28;20368;-42
2022/10/11 12:05:13;;;;;;;;;;;;;;;18.09;66.78;102647.34;5014810;28;20044;-42
2022/10/11 12:08:08;;;;;;;;;;;;;;;18.21;67.58;102637.91;4998264;28;20369;-42
2022/10/11 12:10:48;;;;;;;;;;;;;;;18.49;65.95;102644.84;5011924;28;20462;-42
2022/10/11 12:13:16;;;;;;;;;;;;;;;18.63;63.20;102636.91;5011693;28;20338;-42
2022/10/11 12:15:58;;;;;;;;;;;;;;;18.95;56.92;102640.56;5004439;28;20331;-43
2022/10/11 12:18:24;;;;;;;;;;;;;;;19.39;68.34;102633.84;4996599;28;20274;-43
2022/10/11 12:21:00;;;;;;;;;;;;;;;19.83;71.80;102637.88;5010264;28;20343;-42
2022/10/11 12:23:28;;;;;;;;;;;;;;;20.30;49.27;102640.41;5001734;28;20279;-43
2022/10/11 12:26:11;;;;;;;;;;;;;;;20.55;60.65;102637.47;5005020;28;19956;-44
2022/10/11 12:28:39;;;;;;;;;;;;;;;21.03;58.53;102634.50;5010797;28;19921;-40
2022/10/11 12:31:16;;;;;;;;;;;;;;;21.33;46.55;102640.75;5004892;28;20388;-41
2022/10/11 12:33:41;;;;;;;;;;;;;;;21.38;58.98;102638.31;5005603;28;19929;-41
2022/10/11 12:36:42;;;;;;;;;;;;;;;20.93;46.99;102636.66;5013368;28;20012;-43
2022/10/11 12:39:19;;;;;;;;;;;;;;;20.74;55.52;102629.88;5015158;28;20370;-42
2022/10/11 12:41:50;;;;;;;;;;;;;;;21.27;49.71;102633.38;5005138;28;19913;-45
2022/10/11 12:44:21;;;;;;;;;;;;;;;21.53;48.10;102626.59;5017337;28;20403;-42